sensor_id;sensor_type;location;lat;lon;timestamp;pressure;altitude;pressure_sealevel;temperature;humidity
9462;BME280;4769;42.660;23.262;2023-05-20T00:02:03;94285.03;;;14.72;94.30
9462;BME280;4769;42.660;23.262;2023-05-20T00:04:29;94282.91;;;14.79;94.37
9462;BME280;4769;42.660;23.262;2023-05-20T00:06:54;94284.22;;;14.76;95.16
9462;BME280;4769;42.660;23.262;2023-05-20T00:09:20;94283.72;;;14.79;94.97
9462;BME280;4769;42.660;23.262;2023-05-20T00:11:46;94292.22;;;14.81;94.63
9462;BME280;4769;42.660;23.262;2023-05-20T00:14:14;94278.34;;;14.69;95.24
9462;BME280;4769;42.660;23.262;2023-05-20T00:16:40;94291.09;;;14.67;96.10
9462;BME280;4769;42.660;23.262;2023-05-20T00:19:06;94294.25;;;14.59;96.69
9462;BME280;4769;42.660;23.262;2023-05-20T00:21:31;94284.66;;;14.48;98.25
9462;BME280;4769;42.660;23.262;2023-05-20T00:23:57;94281.97;;;14.38;99.27
9462;BME280;4769;42.660;23.262;2023-05-20T00:26:23;94287.25;;;14.33;99.50
9462;BME280;4769;42.660;23.262;2023-05-20T00:28:49;94290.69;;;14.34;99.53
9462;BME280;4769;42.660;23.262;2023-05-20T00:31:17;94280.63;;;14.31;99.63
9462;BME280;4769;42.660;23.262;2023-05-20T00:33:43;94296.56;;;14.36;99.22
9462;BME280;4769;42.660;23.262;2023-05-20T00:36:09;94284.63;;;14.33;99.09
9462;BME280;4769;42.660;23.262;2023-05-20T00:38:34;94275.09;;;14.37;98.83
9462;BME280;4769;42.660;23.262;2023-05-20T00:41:00;94268.75;;;14.43;98.41
9462;BME280;4769;42.660;23.262;2023-05-20T00:43:26;94266.91;;;14.49;97.97
9462;BME280;4769;42.660;23.262;2023-05-20T00:45:52;94261.34;;;14.55;97.38
9462;BME280;4769;42.660;23.262;2023-05-20T00:48:20;94268.78;;;14.58;97.49
9462;BME280;4769;42.660;23.262;2023-05-20T00:50:46;94263.22;;;14.55;97.70
9462;BME280;4769;42.660;23.262;2023-05-20T00:53:13;94260.03;;;14.58;97.82
9462;BME280;4769;42.660;23.262;2023-05-20T00:55:41;94256.84;;;14.56;98.38
9462;BME280;4769;42.660;23.262;2023-05-20T00:58:06;94257.34;;;14.53;99.04
9462;BME280;4769;42.660;23.262;2023-05-20T01:00:33;94251.75;;;14.39;99.23
9462;BME280;4769;42.660;23.262;2023-05-20T01:02:59;94261.31;;;14.45;98.87
9462;BME280;4769;42.660;23.262;2023-05-20T01:05:27;94262.88;;;14.41;97.93
9462;BME280;4769;42.660;23.262;2023-05-20T01:07:53;94248.50;;;14.27;98.10
9462;BME280;4769;42.660;23.262;2023-05-20T01:10:19;94243.47;;;14.21;98.75
9462;BME280;4769;42.660;23.262;2023-05-20T01:12:48;94256.94;;;14.19;99.20
9462;BME280;4769;42.660;23.262;2023-05-20T01:15:18;94243.75;;;14.29;99.13
9462;BME280;4769;42.660;23.262;2023-05-20T01:17:49;94245.34;;;14.35;99.56
9462;BME280;4769;42.660;23.262;2023-05-20T01:20:16;94262.59;;;14.38;98.95
9462;BME280;4769;42.660;23.262;2023-05-20T01:22:52;94265.00;;;14.39;98.97
9462;BME280;4769;42.660;23.262;2023-05-20T01:25:18;94268.72;;;14.38;99.98
9462;BME280;4769;42.660;23.262;2023-05-20T01:27:44;94269.72;;;14.27;100.00
9462;BME280;4769;42.660;23.262;2023-05-20T01:30:10;94273.19;;;14.28;100.00
9462;BME280;4769;42.660;23.262;2023-05-20T01:32:38;94262.03;;;14.26;100.00
9462;BME280;4769;42.660;23.262;2023-05-20T01:35:05;94269.19;;;14.25;100.00
9462;BME280;4769;42.660;23.262;2023-05-20T01:37:31;94262.56;;;14.28;100.00
9462;BME280;4769;42.660;23.262;2023-05-20T01:40:01;94253.03;;;14.27;100.00
9462;BME280;4769;42.660;23.262;2023-05-20T01:42:28;94250.13;;;14.33;99.44
9462;BME280;4769;42.660;23.262;2023-05-20T01:44:54;94255.44;;;14.33;98.97
9462;BME280;4769;42.660;23.262;2023-05-20T01:47:19;94249.59;;;14.36;98.35
9462;BME280;4769;42.660;23.262;2023-05-20T01:49:45;94251.75;;;14.39;97.72
9462;BME280;4769;42.660;23.262;2023-05-20T01:52:11;94245.09;;;14.37;97.35
9462;BME280;4769;42.660;23.262;2023-05-20T01:54:37;94250.69;;;14.45;96.55
9462;BME280;4769;42.660;23.262;2023-05-20T01:57:05;94248.59;;;14.47;96.98
9462;BME280;4769;42.660;23.262;2023-05-20T01:59:31;94249.91;;;14.45;98.29
9462;BME280;4769;42.660;23.262;2023-05-20T02:01:56;94249.59;;;14.36;99.12
9462;BME280;4769;42.660;23.262;2023-05-20T02:04:22;94252.41;;;14.19;100.00
9462;BME280;4769;42.660;23.262;2023-05-20T02:06:48;94261.22;;;14.20;100.00
9462;BME280;4769;42.660;23.262;2023-05-20T02:09:14;94252.13;;;14.11;100.00
9462;BME280;4769;42.660;23.262;2023-05-20T02:11:40;94247.03;;;14.04;100.00
9462;BME280;4769;42.660;23.262;2023-05-20T02:14:08;94243.63;;;14.04;100.00
9462;BME280;4769;42.660;23.262;2023-05-20T02:16:34;94246.53;;;14.07;100.00
9462;BME280;4769;42.660;23.262;2023-05-20T02:18:59;94252.56;;;13.98;99.97
9462;BME280;4769;42.660;23.262;2023-05-20T02:21:25;94245.41;;;13.93;100.00
9462;BME280;4769;42.660;23.262;2023-05-20T02:23:51;94241.44;;;13.96;100.00
9462;BME280;4769;42.660;23.262;2023-05-20T02:26:16;94249.38;;;13.91;100.00
9462;BME280;4769;42.660;23.262;2023-05-20T02:28:42;94250.94;;;13.87;100.00
9462;BME280;4769;42.660;23.262;2023-05-20T02:31:10;94245.38;;;13.88;100.00
9462;BME280;4769;42.660;23.262;2023-05-20T02:33:36;94235.00;;;13.82;100.00
9462;BME280;4769;42.660;23.262;2023-05-20T02:36:02;94245.38;;;13.88;100.00
9462;BME280;4769;42.660;23.262;2023-05-20T02:38:28;94241.13;;;13.87;100.00
9462;BME280;4769;42.660;23.262;2023-05-20T02:40:54;94239.00;;;13.84;100.00
9462;BME280;4769;42.660;23.262;2023-05-20T02:43:20;94241.41;;;13.86;100.00
9462;BME280;4769;42.660;23.262;2023-05-20T02:45:46;94242.72;;;13.83;100.00
9462;BME280;4769;42.660;23.262;2023-05-20T02:48:14;94238.53;;;13.93;100.00
9462;BME280;4769;42.660;23.262;2023-05-20T02:50:40;94242.50;;;13.95;99.98
9462;BME280;4769;42.660;23.262;2023-05-20T02:53:06;94244.09;;;13.96;99.96
9462;BME280;4769;42.660;23.262;2023-05-20T02:55:33;94251.50;;;13.99;99.92
9462;BME280;4769;42.660;23.262;2023-05-20T02:57:59;94245.13;;;13.90;100.00
9462;BME280;4769;42.660;23.262;2023-05-20T03:00:24;94246.69;;;13.86;100.00
9462;BME280;4769;42.660;23.262;2023-05-20T03:02:50;94242.41;;;13.80;100.00
9462;BME280;4769;42.660;23.262;2023-05-20T03:05:18;94248.00;;;13.83;100.00
9462;BME280;4769;42.660;23.262;2023-05-20T03:07:44;94253.03;;;13.85;100.00
9462;BME280;4769;42.660;23.262;2023-05-20T03:10:10;94252.78;;;13.86;100.00
9462;BME280;4769;42.660;23.262;2023-05-20T03:12:35;94251.94;;;13.76;100.00
9462;BME280;4769;42.660;23.262;2023-05-20T03:15:01;94260.44;;;13.83;100.00
9462;BME280;4769;42.660;23.262;2023-05-20T03:17:27;94260.22;;;13.89;100.00
9462;BME280;4769;42.660;23.262;2023-05-20T03:19:53;94258.72;;;14.03;99.29
9462;BME280;4769;42.660;23.262;2023-05-20T03:22:21;94258.50;;;14.15;97.77
9462;BME280;4769;42.660;23.262;2023-05-20T03:24:47;94252.94;;;14.12;97.36
9462;BME280;4769;42.660;23.262;2023-05-20T03:27:12;94261.44;;;14.18;97.75
9462;BME280;4769;42.660;23.262;2023-05-20T03:29:38;94276.06;;;14.21;98.03
9462;BME280;4769;42.660;23.262;2023-05-20T03:32:05;94263.03;;;14.19;98.87
9462;BME280;4769;42.660;23.262;2023-05-20T03:34:30;94262.81;;;14.26;99.27
9462;BME280;4769;42.660;23.262;2023-05-20T03:36:56;94270.53;;;14.28;99.39
9462;BME280;4769;42.660;23.262;2023-05-20T03:39:24;94272.91;;;14.24;100.00
9462;BME280;4769;42.660;23.262;2023-05-20T03:41:50;94264.41;;;14.27;100.00
9462;BME280;4769;42.660;23.262;2023-05-20T03:44:16;94261.28;;;14.35;99.58
9462;BME280;4769;42.660;23.262;2023-05-20T03:46:41;94271.13;;;14.45;97.83
9462;BME280;4769;42.660;23.262;2023-05-20T03:49:07;94276.22;;;14.56;96.52
9462;BME280;4769;42.660;23.262;2023-05-20T03:51:33;94281.00;;;14.69;96.04
9462;BME280;4769;42.660;23.262;2023-05-20T03:53:59;94279.72;;;14.77;95.58
9462;BME280;4769;42.660;23.262;2023-05-20T03:56:27;94284.25;;;14.81;95.48
9462;BME280;4769;42.660;23.262;2023-05-20T03:58:53;94268.88;;;14.88;96.09
9462;BME280;4769;42.660;23.262;2023-05-20T04:01:18;94280.31;;;15.04;95.77
9462;BME280;4769;42.660;23.262;2023-05-20T04:03:45;94291.22;;;15.07;94.04
9462;BME280;4769;42.660;23.262;2023-05-20T04:06:12;94286.97;;;15.11;93.95
9462;BME280;4769;42.660;23.262;2023-05-20T04:08:38;94291.50;;;15.26;93.33
9462;BME280;4769;42.660;23.262;2023-05-20T04:11:04;94285.13;;;15.27;92.26
9462;BME280;4769;42.660;23.262;2023-05-20T04:13:33;94284.59;;;15.30;92.33
9462;BME280;4769;42.660;23.262;2023-05-20T04:15:58;94293.66;;;15.39;92.70
9462;BME280;4769;42.660;23.262;2023-05-20T04:18:24;94288.63;;;15.42;94.26
9462;BME280;4769;42.660;23.262;2023-05-20T04:20:54;94290.75;;;15.50;95.65
9462;BME280;4769;42.660;23.262;2023-05-20T04:23:23;94301.13;;;15.57;97.48
9462;BME280;4769;42.660;23.262;2023-05-20T04:25:49;94302.44;;;15.54;97.37
9462;BME280;4769;42.660;23.262;2023-05-20T04:28:14;94294.47;;;15.44;97.19
9462;BME280;4769;42.660;23.262;2023-05-20T04:30:43;94296.06;;;15.40;97.74
9462;BME280;4769;42.660;23.262;2023-05-20T04:33:08;94292.59;;;15.35;98.32
9462;BME280;4769;42.660;23.262;2023-05-20T04:35:34;94293.94;;;15.47;98.44
9462;BME280;4769;42.660;23.262;2023-05-20T04:38:00;94289.69;;;15.46;98.40
9462;BME280;4769;42.660;23.262;2023-05-20T04:40:25;94282.53;;;15.52;97.47
9462;BME280;4769;42.660;23.262;2023-05-20T04:42:51;94288.59;;;15.57;97.16
9462;BME280;4769;42.660;23.262;2023-05-20T04:45:17;94302.19;;;15.66;96.79
9462;BME280;4769;42.660;23.262;2023-05-20T04:47:45;94295.81;;;15.62;96.63
9462;BME280;4769;42.660;23.262;2023-05-20T04:50:11;94300.03;;;15.68;96.70
9462;BME280;4769;42.660;23.262;2023-05-20T04:52:37;94308.81;;;15.68;96.80
9462;BME280;4769;42.660;23.262;2023-05-20T04:55:04;94319.72;;;15.72;97.06
9462;BME280;4769;42.660;23.262;2023-05-20T04:57:34;94307.75;;;15.74;96.69
9462;BME280;4769;42.660;23.262;2023-05-20T05:00:00;94302.16;;;15.81;95.82
9462;BME280;4769;42.660;23.262;2023-05-20T05:02:25;94293.09;;;15.92;95.45
9462;BME280;4769;42.660;23.262;2023-05-20T05:04:54;94299.22;;;16.02;94.21
9462;BME280;4769;42.660;23.262;2023-05-20T05:07:19;94296.53;;;16.12;93.95
9462;BME280;4769;42.660;23.262;2023-05-20T05:09:45;94302.34;;;16.29;93.52
9462;BME280;4769;42.660;23.262;2023-05-20T05:12:11;94293.84;;;16.22;94.16
9462;BME280;4769;42.660;23.262;2023-05-20T05:14:37;94301.53;;;16.49;93.43
9462;BME280;4769;42.660;23.262;2023-05-20T05:17:03;94301.78;;;16.52;92.59
9462;BME280;4769;42.660;23.262;2023-05-20T05:19:29;94300.13;;;16.66;92.85
9462;BME280;4769;42.660;23.262;2023-05-20T05:21:57;94299.28;;;16.76;92.36
9462;BME280;4769;42.660;23.262;2023-05-20T05:24:27;94303.22;;;16.83;92.07
9462;BME280;4769;42.660;23.262;2023-05-20T05:26:53;94304.03;;;16.84;91.22
9462;BME280;4769;42.660;23.262;2023-05-20T05:29:20;94293.84;;;17.01;96.50
9462;BME280;4769;42.660;23.262;2023-05-20T05:31:45;94293.94;;;17.24;90.73
9462;BME280;4769;42.660;23.262;2023-05-20T05:34:11;94295.53;;;17.30;87.77
9462;BME280;4769;42.660;23.262;2023-05-20T05:36:38;94289.84;;;17.37;86.72
9462;BME280;4769;42.660;23.262;2023-05-20T05:39:07;94286.31;;;17.51;85.86
9462;BME280;4769;42.660;23.262;2023-05-20T05:41:33;94279.38;;;17.55;85.00
9462;BME280;4769;42.660;23.262;2023-05-20T05:43:58;94284.63;;;17.65;84.35
9462;BME280;4769;42.660;23.262;2023-05-20T05:46:24;94287.41;;;17.79;83.13
9462;BME280;4769;42.660;23.262;2023-05-20T05:48:50;94280.22;;;17.79;82.31
9462;BME280;4769;42.660;23.262;2023-05-20T05:51:16;94287.63;;;17.87;81.80
9462;BME280;4769;42.660;23.262;2023-05-20T05:53:42;94272.50;;;18.06;81.33
9462;BME280;4769;42.660;23.262;2023-05-20T05:56:10;94283.72;;;18.03;81.91
9462;BME280;4769;42.660;23.262;2023-05-20T05:58:36;94281.72;;;18.19;80.56
9462;BME280;4769;42.660;23.262;2023-05-20T06:01:02;94280.81;;;18.28;79.51
9462;BME280;4769;42.660;23.262;2023-05-20T06:03:28;94284.38;;;18.47;79.90
9462;BME280;4769;42.660;23.262;2023-05-20T06:05:53;94280.34;;;18.50;77.86
9462;BME280;4769;42.660;23.262;2023-05-20T06:08:19;94283.47;;;18.57;78.16
9462;BME280;4769;42.660;23.262;2023-05-20T06:10:47;94280.06;;;18.51;78.67
9462;BME280;4769;42.660;23.262;2023-05-20T06:13:16;94274.41;;;18.76;77.48
9462;BME280;4769;42.660;23.262;2023-05-20T06:15:42;94271.25;;;18.93;76.49
9462;BME280;4769;42.660;23.262;2023-05-20T06:18:08;94279.81;;;19.13;75.99
9462;BME280;4769;42.660;23.262;2023-05-20T06:20:34;94284.31;;;19.36;75.05
9462;BME280;4769;42.660;23.262;2023-05-20T06:22:59;94267.53;;;19.49;73.86
9462;BME280;4769;42.660;23.262;2023-05-20T06:25:26;94269.91;;;19.51;73.70
9462;BME280;4769;42.660;23.262;2023-05-20T06:27:51;94268.72;;;19.75;72.94
9462;BME280;4769;42.660;23.262;2023-05-20T06:30:20;94266.56;;;19.77;72.23
9462;BME280;4769;42.660;23.262;2023-05-20T06:32:46;94259.75;;;19.98;72.38
9462;BME280;4769;42.660;23.262;2023-05-20T06:35:11;94253.19;;;19.91;69.70
9462;BME280;4769;42.660;23.262;2023-05-20T06:37:37;94254.28;;;19.90;70.27
9462;BME280;4769;42.660;23.262;2023-05-20T06:40:04;94246.28;;;20.03;72.30
9462;BME280;4769;42.660;23.262;2023-05-20T06:42:30;94243.88;;;20.34;71.38
9462;BME280;4769;42.660;23.262;2023-05-20T06:44:56;94239.09;;;20.58;69.69
9462;BME280;4769;42.660;23.262;2023-05-20T06:47:24;94242.06;;;20.83;68.09
9462;BME280;4769;42.660;23.262;2023-05-20T06:49:50;94245.72;;;20.87;65.50
9462;BME280;4769;42.660;23.262;2023-05-20T06:52:16;94238.41;;;20.93;66.38
9462;BME280;4769;42.660;23.262;2023-05-20T06:54:41;94235.13;;;21.31;65.04
9462;BME280;4769;42.660;23.262;2023-05-20T06:57:07;94242.09;;;21.32;64.90
9462;BME280;4769;42.660;23.262;2023-05-20T06:59:33;94234.31;;;21.44;61.65
9462;BME280;4769;42.660;23.262;2023-05-20T07:01:59;94243.34;;;21.70;60.62
9462;BME280;4769;42.660;23.262;2023-05-20T07:04:28;94260.56;;;21.69;59.12
9462;BME280;4769;42.660;23.262;2023-05-20T07:06:54;94240.75;;;21.65;58.60
9462;BME280;4769;42.660;23.262;2023-05-20T07:09:19;94253.28;;;21.92;57.69
9462;BME280;4769;42.660;23.262;2023-05-20T07:11:45;94250.75;;;22.17;56.96
9462;BME280;4769;42.660;23.262;2023-05-20T07:14:11;94238.66;;;22.28;54.52
9462;BME280;4769;42.660;23.262;2023-05-20T07:16:37;94240.69;;;22.31;53.36
9462;BME280;4769;42.660;23.262;2023-05-20T07:19:03;94230.47;;;22.42;53.73
9462;BME280;4769;42.660;23.262;2023-05-20T07:21:32;94248.88;;;22.48;52.22
9462;BME280;4769;42.660;23.262;2023-05-20T07:23:58;94245.56;;;22.51;52.78
9462;BME280;4769;42.660;23.262;2023-05-20T07:26:24;94238.84;;;22.40;52.06
9462;BME280;4769;42.660;23.262;2023-05-20T07:28:50;94231.03;;;22.61;51.72
9462;BME280;4769;42.660;23.262;2023-05-20T07:31:15;94239.56;;;22.54;51.93
9462;BME280;4769;42.660;23.262;2023-05-20T07:33:41;94227.47;;;22.82;51.41
9462;BME280;4769;42.660;23.262;2023-05-20T07:36:07;94234.81;;;23.16;50.51
9462;BME280;4769;42.660;23.262;2023-05-20T07:38:35;94234.06;;;23.58;50.89
9462;BME280;4769;42.660;23.262;2023-05-20T07:41:01;94234.19;;;23.87;49.80
9462;BME280;4769;42.660;23.262;2023-05-20T07:43:27;94246.09;;;23.95;48.01
9462;BME280;4769;42.660;23.262;2023-05-20T07:45:53;94253.38;;;24.03;48.08
9462;BME280;4769;42.660;23.262;2023-05-20T07:48:19;94258.13;;;23.88;46.97
9462;BME280;4769;42.660;23.262;2023-05-20T07:50:44;94241.19;;;23.71;47.25
9462;BME280;4769;42.660;23.262;2023-05-20T07:53:10;94240.38;;;23.88;46.74
9462;BME280;4769;42.660;23.262;2023-05-20T07:55:39;94234.13;;;24.21;46.16
9462;BME280;4769;42.660;23.262;2023-05-20T07:58:04;94230.81;;;24.24;46.45
9462;BME280;4769;42.660;23.262;2023-05-20T08:00:30;94236.72;;;24.55;46.21
9462;BME280;4769;42.660;23.262;2023-05-20T08:02:56;94226.53;;;24.98;45.44
9462;BME280;4769;42.660;23.262;2023-05-20T08:05:22;94226.50;;;24.78;44.51
9462;BME280;4769;42.660;23.262;2023-05-20T08:07:48;94229.31;;;24.90;44.98
9462;BME280;4769;42.660;23.262;2023-05-20T08:10:14;94222.13;;;24.65;44.17
9462;BME280;4769;42.660;23.262;2023-05-20T08:12:42;94219.44;;;24.10;45.71
9462;BME280;4769;42.660;23.262;2023-05-20T08:15:09;94220.16;;;24.36;46.92
9462;BME280;4769;42.660;23.262;2023-05-20T08:17:35;94223.38;;;24.59;45.47
9462;BME280;4769;42.660;23.262;2023-05-20T08:20:01;94216.16;;;24.80;45.56
9462;BME280;4769;42.660;23.262;2023-05-20T08:22:27;94220.16;;;24.82;45.37
9462;BME280;4769;42.660;23.262;2023-05-20T08:24:52;94214.22;;;25.18;44.42
9462;BME280;4769;42.660;23.262;2023-05-20T08:27:18;94208.00;;;24.68;44.99
9462;BME280;4769;42.660;23.262;2023-05-20T08:29:47;94209.72;;;25.01;45.16
9462;BME280;4769;42.660;23.262;2023-05-20T08:32:13;94210.91;;;25.12;43.97
9462;BME280;4769;42.660;23.262;2023-05-20T08:34:38;94202.97;;;25.57;45.00
9462;BME280;4769;42.660;23.262;2023-05-20T08:37:04;94207.31;;;25.70;42.73
9462;BME280;4769;42.660;23.262;2023-05-20T08:39:30;94202.72;;;25.50;42.35
9462;BME280;4769;42.660;23.262;2023-05-20T08:41:57;94200.06;;;25.62;42.62
9462;BME280;4769;42.660;23.262;2023-05-20T08:44:23;94208.63;;;25.23;42.07
9462;BME280;4769;42.660;23.262;2023-05-20T08:46:53;94196.91;;;24.61;44.93
9462;BME280;4769;42.660;23.262;2023-05-20T08:49:20;94206.56;;;24.70;44.21
9462;BME280;4769;42.660;23.262;2023-05-20T08:51:46;94202.03;;;24.83;43.23
9462;BME280;4769;42.660;23.262;2023-05-20T08:54:13;94205.59;;;24.95;44.41
9462;BME280;4769;42.660;23.262;2023-05-20T08:56:40;94207.59;;;25.36;44.02
9462;BME280;4769;42.660;23.262;2023-05-20T08:59:06;94205.75;;;24.99;44.49
9462;BME280;4769;42.660;23.262;2023-05-20T09:01:37;94206.56;;;25.20;44.85
9462;BME280;4769;42.660;23.262;2023-05-20T09:04:07;94194.84;;;25.16;44.19
9462;BME280;4769;42.660;23.262;2023-05-20T09:06:41;94201.91;;;25.49;44.68
9462;BME280;4769;42.660;23.262;2023-05-20T09:09:09;94183.50;;;25.84;44.44
9462;BME280;4769;42.660;23.262;2023-05-20T09:11:35;94200.03;;;25.82;43.27
9462;BME280;4769;42.660;23.262;2023-05-20T09:14:01;94193.69;;;25.99;42.70
9462;BME280;4769;42.660;23.262;2023-05-20T09:16:27;94194.06;;;26.21;42.28
9462;BME280;4769;42.660;23.262;2023-05-20T09:18:54;94190.41;;;26.50;41.39
9462;BME280;4769;42.660;23.262;2023-05-20T09:21:27;94185.41;;;26.16;42.47
9462;BME280;4769;42.660;23.262;2023-05-20T09:23:53;94183.09;;;25.94;41.82
9462;BME280;4769;42.660;23.262;2023-05-20T09:26:19;94183.53;;;25.63;44.24
9462;BME280;4769;42.660;23.262;2023-05-20T09:28:45;94185.31;;;25.39;42.74
9462;BME280;4769;42.660;23.262;2023-05-20T09:31:13;94178.50;;;25.12;43.80
9462;BME280;4769;42.660;23.262;2023-05-20T09:33:42;94174.06;;;25.37;42.40
9462;BME280;4769;42.660;23.262;2023-05-20T09:36:08;94179.53;;;25.81;42.02
9462;BME280;4769;42.660;23.262;2023-05-20T09:38:38;94177.38;;;25.75;42.44
9462;BME280;4769;42.660;23.262;2023-05-20T09:41:09;94173.53;;;25.64;43.92
9462;BME280;4769;42.660;23.262;2023-05-20T09:43:36;94178.31;;;25.79;43.20
9462;BME280;4769;42.660;23.262;2023-05-20T09:46:03;94175.00;;;25.73;43.44
9462;BME280;4769;42.660;23.262;2023-05-20T09:48:29;94175.97;;;25.89;45.14
9462;BME280;4769;42.660;23.262;2023-05-20T09:50:56;94178.75;;;25.28;44.75
9462;BME280;4769;42.660;23.262;2023-05-20T09:53:22;94173.94;;;25.13;45.40
9462;BME280;4769;42.660;23.262;2023-05-20T09:55:54;94172.38;;;24.83;46.49
9462;BME280;4769;42.660;23.262;2023-05-20T09:58:19;94161.50;;;24.71;46.49
9462;BME280;4769;42.660;23.262;2023-05-20T10:00:45;94163.88;;;24.93;45.81
9462;BME280;4769;42.660;23.262;2023-05-20T10:03:11;94163.13;;;25.54;44.92
9462;BME280;4769;42.660;23.262;2023-05-20T10:05:40;94156.09;;;25.94;44.59
9462;BME280;4769;42.660;23.262;2023-05-20T10:08:24;94159.81;;;25.69;43.87
9462;BME280;4769;42.660;23.262;2023-05-20T10:11:01;94155.69;;;25.51;44.07
9462;BME280;4769;42.660;23.262;2023-05-20T10:13:47;94160.22;;;25.18;43.25
9462;BME280;4769;42.660;23.262;2023-05-20T10:16:22;94151.28;;;25.46;43.03
9462;BME280;4769;42.660;23.262;2023-05-20T10:18:55;94137.44;;;26.25;41.20
9462;BME280;4769;42.660;23.262;2023-05-20T10:21:23;94127.09;;;26.87;40.01
9462;BME280;4769;42.660;23.262;2023-05-20T10:23:50;94124.69;;;25.69;40.65
9462;BME280;4769;42.660;23.262;2023-05-20T10:26:19;94133.22;;;24.77;42.91
9462;BME280;4769;42.660;23.262;2023-05-20T10:28:45;94124.81;;;24.99;43.01
9462;BME280;4769;42.660;23.262;2023-05-20T10:31:16;94123.03;;;24.62;42.87
9462;BME280;4769;42.660;23.262;2023-05-20T10:33:43;94128.56;;;24.57;43.82
9462;BME280;4769;42.660;23.262;2023-05-20T10:36:09;94118.94;;;24.97;43.15
9462;BME280;4769;42.660;23.262;2023-05-20T10:38:35;94110.28;;;25.65;40.48
9462;BME280;4769;42.660;23.262;2023-05-20T10:41:07;94105.75;;;26.01;40.66
9462;BME280;4769;42.660;23.262;2023-05-20T10:43:35;94108.41;;;26.34;40.78
9462;BME280;4769;42.660;23.262;2023-05-20T10:46:01;94103.09;;;25.81;40.49
9462;BME280;4769;42.660;23.262;2023-05-20T10:48:28;94100.19;;;25.86;40.10
9462;BME280;4769;42.660;23.262;2023-05-20T10:50:55;94080.88;;;26.32;38.20
9462;BME280;4769;42.660;23.262;2023-05-20T10:53:22;94098.13;;;26.63;38.08
9462;BME280;4769;42.660;23.262;2023-05-20T10:55:49;94083.66;;;25.43;38.02
9462;BME280;4769;42.660;23.262;2023-05-20T10:58:15;94089.13;;;24.23;40.72
9462;BME280;4769;42.660;23.262;2023-05-20T11:00:44;94093.69;;;24.52;41.39
9462;BME280;4769;42.660;23.262;2023-05-20T11:03:10;94087.78;;;25.08;40.68
9462;BME280;4769;42.660;23.262;2023-05-20T11:05:38;94084.28;;;26.41;39.14
9462;BME280;4769;42.660;23.262;2023-05-20T11:08:06;94077.28;;;26.76;36.56
9462;BME280;4769;42.660;23.262;2023-05-20T11:10:32;94080.00;;;27.15;36.19
9462;BME280;4769;42.660;23.262;2023-05-20T11:13:00;94079.84;;;26.84;36.31
9462;BME280;4769;42.660;23.262;2023-05-20T11:15:26;94075.91;;;26.70;36.73
9462;BME280;4769;42.660;23.262;2023-05-20T11:17:56;94063.88;;;27.62;37.04
9462;BME280;4769;42.660;23.262;2023-05-20T11:20:23;94068.41;;;28.01;34.86
9462;BME280;4769;42.660;23.262;2023-05-20T11:22:49;94060.38;;;27.18;35.63
9462;BME280;4769;42.660;23.262;2023-05-20T11:25:15;94063.88;;;25.95;37.86
9462;BME280;4769;42.660;23.262;2023-05-20T11:27:42;94065.69;;;25.59;39.61
9462;BME280;4769;42.660;23.262;2023-05-20T11:30:08;94058.56;;;24.89;41.07
9462;BME280;4769;42.660;23.262;2023-05-20T11:32:35;94049.16;;;24.75;41.51
9462;BME280;4769;42.660;23.262;2023-05-20T11:35:05;94051.81;;;24.34;42.48
9462;BME280;4769;42.660;23.262;2023-05-20T11:37:31;94047.31;;;24.38;42.86
9462;BME280;4769;42.660;23.262;2023-05-20T11:40:05;94038.53;;;24.49;42.30
9462;BME280;4769;42.660;23.262;2023-05-20T11:42:31;94039.78;;;24.52;41.93
9462;BME280;4769;42.660;23.262;2023-05-20T11:44:58;94025.00;;;23.70;43.21
9462;BME280;4769;42.660;23.262;2023-05-20T11:47:24;94033.19;;;23.91;43.62
9462;BME280;4769;42.660;23.262;2023-05-20T11:49:50;94037.75;;;23.91;44.10
9462;BME280;4769;42.660;23.262;2023-05-20T11:52:18;94050.53;;;23.56;43.93
9462;BME280;4769;42.660;23.262;2023-05-20T11:54:51;94036.94;;;23.52;44.71
9462;BME280;4769;42.660;23.262;2023-05-20T11:57:17;94028.41;;;23.97;44.44
9462;BME280;4769;42.660;23.262;2023-05-20T11:59:43;94025.56;;;24.22;43.60
9462;BME280;4769;42.660;23.262;2023-05-20T12:02:09;94024.25;;;24.28;42.74
9462;BME280;4769;42.660;23.262;2023-05-20T12:04:35;94017.75;;;24.29;42.52
9462;BME280;4769;42.660;23.262;2023-05-20T12:07:00;94023.41;;;24.07;42.72
9462;BME280;4769;42.660;23.262;2023-05-20T12:09:29;94015.66;;;24.35;42.30
9462;BME280;4769;42.660;23.262;2023-05-20T12:11:55;94016.97;;;24.49;42.66
9462;BME280;4769;42.660;23.262;2023-05-20T12:14:21;93998.63;;;24.43;43.09
9462;BME280;4769;42.660;23.262;2023-05-20T12:16:47;94002.47;;;24.13;44.84
9462;BME280;4769;42.660;23.262;2023-05-20T12:19:12;94010.84;;;24.20;44.77
9462;BME280;4769;42.660;23.262;2023-05-20T12:21:38;94006.91;;;24.17;44.22
9462;BME280;4769;42.660;23.262;2023-05-20T12:24:04;94016.47;;;23.60;46.04
9462;BME280;4769;42.660;23.262;2023-05-20T12:26:32;94012.84;;;23.56;46.55
9462;BME280;4769;42.660;23.262;2023-05-20T12:28:58;94021.78;;;23.48;46.29
9462;BME280;4769;42.660;23.262;2023-05-20T12:31:24;94032.38;;;23.44;47.40
9462;BME280;4769;42.660;23.262;2023-05-20T12:33:50;94039.34;;;23.45;47.55
9462;BME280;4769;42.660;23.262;2023-05-20T12:36:16;94045.88;;;23.10;48.39
9462;BME280;4769;42.660;23.262;2023-05-20T12:38:41;94062.63;;;22.39;48.53
9462;BME280;4769;42.660;23.262;2023-05-20T12:41:07;94071.78;;;21.52;49.44
9462;BME280;4769;42.660;23.262;2023-05-20T12:43:36;94062.34;;;21.02;52.00
9462;BME280;4769;42.660;23.262;2023-05-20T12:46:02;94069.13;;;20.64;55.46
9462;BME280;4769;42.660;23.262;2023-05-20T12:48:27;94063.19;;;20.18;56.39
9462;BME280;4769;42.660;23.262;2023-05-20T12:50:53;94072.00;;;20.05;58.42
9462;BME280;4769;42.660;23.262;2023-05-20T12:53:19;94078.63;;;20.21;58.28
9462;BME280;4769;42.660;23.262;2023-05-20T12:55:44;94061.63;;;20.17;56.47
9462;BME280;4769;42.660;23.262;2023-05-20T12:58:10;94071.63;;;20.11;56.73
9462;BME280;4769;42.660;23.262;2023-05-20T13:00:38;94064.97;;;20.58;55.90
9462;BME280;4769;42.660;23.262;2023-05-20T13:03:04;94065.75;;;20.94;53.74
9462;BME280;4769;42.660;23.262;2023-05-20T13:05:30;94057.25;;;21.75;51.42
9462;BME280;4769;42.660;23.262;2023-05-20T13:07:56;94052.22;;;22.46;49.40